createdAt,value
2023-03-28T00:00:41.787Z,0.70
2023-03-28T00:03:08.753Z,0.60
2023-03-28T00:05:40.186Z,0.60
2023-03-28T00:08:07.223Z,0.60
2023-03-28T00:10:34.324Z,0.50
2023-03-28T00:13:01.150Z,0.60
2023-03-28T00:15:28.704Z,0.50
2023-03-28T00:17:55.468Z,0.50
2023-03-28T00:20:22.273Z,0.50
2023-03-28T00:22:49.467Z,0.50
2023-03-28T00:25:16.293Z,0.50
2023-03-28T00:27:43.066Z,0.50
2023-03-28T00:30:11.075Z,0.50
2023-03-28T00:32:38.083Z,0.40
2023-03-28T00:35:05.353Z,0.40
2023-03-28T00:37:34.499Z,0.40
2023-03-28T00:40:01.699Z,0.40
2023-03-28T00:42:28.441Z,0.30
2023-03-28T00:44:57.209Z,0.30
2023-03-28T00:47:43.893Z,0.30
2023-03-28T00:50:20.350Z,0.30
2023-03-28T00:53:04.605Z,0.30
2023-03-28T00:56:06.838Z,0.30
2023-03-28T00:58:35.572Z,0.40
2023-03-28T01:01:02.440Z,0.30
2023-03-28T01:03:34.145Z,0.30
2023-03-28T01:06:06.467Z,0.30
2023-03-28T01:08:38.085Z,0.20
2023-03-28T01:11:06.287Z,0.20
2023-03-28T01:13:38.213Z,0.30
2023-03-28T01:16:07.207Z,0.30
2023-03-28T01:18:35.772Z,0.30
2023-03-28T01:21:05.877Z,0.30
2023-03-28T01:23:52.593Z,0.20
2023-03-28T01:27:12.429Z,0.20
2023-03-28T01:29:51.152Z,0.20
2023-03-28T01:32:17.868Z,0.10
2023-03-28T01:34:53.269Z,0.10
2023-03-28T01:37:41.877Z,0.10
2023-03-28T01:40:43.822Z,0.10
2023-03-28T01:43:32.920Z,0.00
2023-03-28T01:46:16.116Z,0.00
2023-03-28T01:48:48.609Z,0.00
2023-03-28T01:51:29.142Z,-0.20
2023-03-28T01:54:18.091Z,-0.20
2023-03-28T01:57:25.902Z,-0.10
2023-03-28T02:00:15.850Z,-0.10
2023-03-28T02:02:51.207Z,-0.10
2023-03-28T02:05:22.393Z,0.00
2023-03-28T02:07:52.240Z,-0.10
2023-03-28T02:10:22.870Z,-0.10
2023-03-28T02:12:57.917Z,-0.10
2023-03-28T02:15:26.397Z,-0.10
2023-03-28T02:18:02.536Z,-0.20
2023-03-28T02:20:33.751Z,-0.20
2023-03-28T02:23:15.288Z,-0.20
2023-03-28T02:25:43.343Z,-0.20
2023-03-28T02:28:11.663Z,-0.30
2023-03-28T02:30:40.161Z,-0.40
2023-03-28T02:33:28.072Z,-0.30
2023-03-28T02:36:06.940Z,-0.30
2023-03-28T02:38:59.535Z,-0.40
2023-03-28T02:41:51.572Z,-0.40
2023-03-28T02:44:36.450Z,-0.40
2023-03-28T02:47:17.793Z,-0.40
2023-03-28T02:49:56.965Z,-0.40
2023-03-28T02:52:58.663Z,-0.40
2023-03-28T02:55:33.658Z,-0.50
2023-03-28T02:58:18.366Z,-0.50
2023-03-28T03:00:45.129Z,-0.40
2023-03-28T03:03:11.930Z,-0.50
2023-03-28T03:05:38.838Z,-0.50
2023-03-28T03:08:05.902Z,-0.60
2023-03-28T03:10:32.705Z,-0.60
2023-03-28T03:12:59.650Z,-0.60
2023-03-28T03:15:30.950Z,-0.60
2023-03-28T03:18:02.488Z,-0.60
2023-03-28T03:20:33.642Z,-0.60
2023-03-28T03:23:01.605Z,-0.60
2023-03-28T03:25:31.379Z,-0.70
2023-03-28T03:27:58.197Z,-0.70
2023-03-28T03:30:25.512Z,-0.60
2023-03-28T03:32:52.396Z,-0.60
2023-03-28T03:35:20.230Z,-0.60
2023-03-28T03:37:47.140Z,-0.60
2023-03-28T03:40:14.035Z,-0.60
2023-03-28T03:42:41.279Z,-0.60
2023-03-28T03:45:09.788Z,-0.60
2023-03-28T03:47:36.941Z,-0.50
2023-03-28T03:50:04.209Z,-0.50
2023-03-28T03:52:30.891Z,-0.50
2023-03-28T03:54:57.986Z,-0.50
2023-03-28T03:57:24.740Z,-0.50
2023-03-28T03:59:52.255Z,-0.50
2023-03-28T04:02:19.301Z,-0.50
2023-03-28T04:04:47.836Z,-0.40
2023-03-28T04:07:15.508Z,-0.50
2023-03-28T04:09:43.769Z,-0.50
2023-03-28T04:12:12.108Z,-0.50
2023-03-28T04:14:38.979Z,-0.50
2023-03-28T04:17:06.855Z,-0.60
2023-03-28T04:19:33.706Z,-0.70
2023-03-28T04:22:00.493Z,-0.60
2023-03-28T04:24:27.271Z,-0.60
2023-03-28T04:26:56.129Z,-0.50
2023-03-28T04:29:32.617Z,-0.50
2023-03-28T04:31:59.600Z,-0.50
2023-03-28T04:34:30.071Z,-0.40
2023-03-28T04:37:03.819Z,-0.50
2023-03-28T04:39:32.863Z,-0.30
2023-03-28T04:42:04.081Z,-0.30
2023-03-28T04:44:31.634Z,-0.40
2023-03-28T04:46:59.732Z,-0.20
2023-03-28T04:49:27.820Z,-0.20
2023-03-28T04:51:54.727Z,-0.20
2023-03-28T04:54:21.482Z,-0.10
2023-03-28T04:56:48.334Z,-0.10
2023-03-28T04:59:16.093Z,-0.10
2023-03-28T05:01:48.957Z,-0.10
2023-03-28T05:04:17.795Z,-0.10
2023-03-28T05:06:46.584Z,0.00
2023-03-28T05:09:14.401Z,0.10
2023-03-28T05:11:41.277Z,0.10
2023-03-28T05:14:08.325Z,0.10
2023-03-28T05:16:35.842Z,0.10
2023-03-28T05:19:02.852Z,0.20
2023-03-28T05:21:29.623Z,0.10
2023-03-28T05:23:58.450Z,0.10
2023-03-28T05:26:25.711Z,0.10
2023-03-28T05:28:54.528Z,0.10
2023-03-28T05:31:21.512Z,0.20
2023-03-28T05:33:48.238Z,0.10
2023-03-28T05:36:15.103Z,0.20
2023-03-28T05:38:42.226Z,0.20
2023-03-28T05:41:08.967Z,0.20
2023-03-28T05:43:35.737Z,0.20
2023-03-28T05:46:02.536Z,0.20
2023-03-28T05:48:29.307Z,0.30
2023-03-28T05:50:56.470Z,0.30
2023-03-28T05:53:23.257Z,0.40
2023-03-28T05:55:51.189Z,0.40
2023-03-28T05:58:17.875Z,0.40
2023-03-28T06:00:44.701Z,0.40
2023-03-28T06:03:16.385Z,0.30
2023-03-28T06:05:43.948Z,0.30
2023-03-28T06:08:10.917Z,0.30
2023-03-28T06:10:40.697Z,0.30
2023-03-28T06:13:07.437Z,0.30
2023-03-28T06:15:34.139Z,0.20
2023-03-28T06:18:00.943Z,0.30
2023-03-28T06:20:27.921Z,0.40
2023-03-28T06:22:54.763Z,0.40
2023-03-28T06:25:21.809Z,0.50
2023-03-28T06:27:49.485Z,0.60
2023-03-28T06:30:16.328Z,0.70
2023-03-28T06:32:43.093Z,0.70
2023-03-28T06:35:10.095Z,0.80
2023-03-28T06:37:36.852Z,0.90
2023-03-28T06:40:03.853Z,1.00
2023-03-28T06:42:30.847Z,1.10
2023-03-28T06:44:57.751Z,1.10
2023-03-28T06:47:24.551Z,1.10
2023-03-28T06:49:51.271Z,1.20
2023-03-28T06:52:18.156Z,1.30
2023-03-28T06:54:47.200Z,1.30
2023-03-28T06:57:15.923Z,1.30
2023-03-28T06:59:42.784Z,1.40
2023-03-28T07:02:12.468Z,1.40
2023-03-28T07:04:39.425Z,1.50
2023-03-28T07:07:09.275Z,1.60
2023-03-28T07:09:37.098Z,1.60
2023-03-28T07:12:04.667Z,1.70
2023-03-28T07:14:31.530Z,1.70
2023-03-28T07:16:58.387Z,1.70
2023-03-28T07:19:25.333Z,1.70
2023-03-28T07:21:53.139Z,1.70
2023-03-28T07:24:20.195Z,1.70
2023-03-28T07:26:47.112Z,1.70
2023-03-28T07:29:13.853Z,1.70
2023-03-28T07:31:41.237Z,1.70
2023-03-28T07:34:08.264Z,1.70
2023-03-28T07:36:38.093Z,1.70
2023-03-28T07:39:05.158Z,1.70
2023-03-28T07:41:32.155Z,1.70
2023-03-28T07:43:58.981Z,1.70
2023-03-28T07:46:25.795Z,1.60
2023-03-28T07:48:52.606Z,1.50
2023-03-28T07:51:19.556Z,1.50
2023-03-28T07:53:46.290Z,1.30
2023-03-28T07:56:13.302Z,1.30
2023-03-28T07:58:41.025Z,1.30
2023-03-28T08:01:09.511Z,1.30
2023-03-28T08:03:36.621Z,1.30
2023-03-28T08:06:13.371Z,1.30
2023-03-28T08:08:43.727Z,1.40
2023-03-28T08:11:13.640Z,1.60
2023-03-28T08:13:40.517Z,1.70
2023-03-28T08:16:08.328Z,1.70
2023-03-28T08:18:35.253Z,1.70
2023-03-28T08:21:03.551Z,1.90
2023-03-28T08:23:30.784Z,2.00
2023-03-28T08:26:04.620Z,2.00
2023-03-28T08:28:36.116Z,2.10
2023-03-28T08:31:14.636Z,2.20
2023-03-28T08:33:42.739Z,2.10
2023-03-28T08:36:14.476Z,2.10
2023-03-28T08:38:45.922Z,2.10
2023-03-28T08:41:30.992Z,2.00
2023-03-28T08:44:28.699Z,2.00
2023-03-28T08:47:02.001Z,1.80
2023-03-28T08:49:30.728Z,1.80
2023-03-28T08:52:00.787Z,1.80
2023-03-28T08:54:31.477Z,1.80
2023-03-28T08:56:59.836Z,1.70
2023-03-28T08:59:52.007Z,1.60
2023-03-28T09:02:26.629Z,1.60
2023-03-28T09:04:58.018Z,1.60
2023-03-28T09:07:56.622Z,1.60
2023-03-28T09:10:38.372Z,1.50
2023-03-28T09:13:27.007Z,1.50
2023-03-28T09:16:21.341Z,1.50
2023-03-28T09:19:01.750Z,1.50
2023-03-28T09:21:38.592Z,1.50
2023-03-28T09:24:20.357Z,1.60
2023-03-28T09:26:55.029Z,1.50
2023-03-28T09:29:25.979Z,1.40
2023-03-28T09:32:01.780Z,1.40
2023-03-28T09:34:36.362Z,1.60
2023-03-28T09:37:31.900Z,1.70
2023-03-28T09:40:20.176Z,1.70
2023-03-28T09:43:10.791Z,1.60
2023-03-28T09:46:02.908Z,1.60
2023-03-28T09:48:35.604Z,1.60
2023-03-28T09:51:04.776Z,1.50
2023-03-28T09:53:36.631Z,1.60
2023-03-28T09:56:21.733Z,1.50
2023-03-28T09:58:56.963Z,1.60
2023-03-28T10:01:43.933Z,1.60
2023-03-28T10:04:15.346Z,1.60
2023-03-28T10:06:43.409Z,1.50
2023-03-28T10:09:18.183Z,1.40
2023-03-28T10:12:09.921Z,1.20
2023-03-28T10:14:37.897Z,1.20
2023-03-28T10:17:12.251Z,1.20
2023-03-28T16:19:21.171Z,0.40
2023-03-28T16:21:48.883Z,0.30
2023-03-28T16:24:16.312Z,0.30
2023-03-28T16:26:43.307Z,0.30
2023-03-28T16:29:11.441Z,0.20
2023-03-28T16:31:39.134Z,0.20
2023-03-28T16:34:08.515Z,0.20
2023-03-28T16:36:36.611Z,0.20
2023-03-28T16:39:05.333Z,0.20
2023-03-28T16:41:32.493Z,0.20
2023-03-28T16:43:59.797Z,0.20
2023-03-28T16:46:26.730Z,0.20
2023-03-28T16:48:53.483Z,0.30
2023-03-28T16:51:20.585Z,0.30
2023-03-28T16:53:48.651Z,0.30
2023-03-28T16:56:15.641Z,0.30
2023-03-28T16:58:43.054Z,0.20
2023-03-28T17:01:15.588Z,0.20
2023-03-28T17:03:42.465Z,0.20
2023-03-28T17:06:11.429Z,0.10
2023-03-28T17:08:38.827Z,0.10
2023-03-28T17:11:09.155Z,0.10
2023-03-28T17:13:37.695Z,0.20
2023-03-28T17:16:06.331Z,0.20
2023-03-28T17:18:33.164Z,0.20
2023-03-28T17:21:04.829Z,0.20
2023-03-28T17:23:32.879Z,0.20
2023-03-28T17:26:00.777Z,0.20
2023-03-28T17:28:28.948Z,0.10
2023-03-28T17:30:56.226Z,0.10
2023-03-28T17:33:23.607Z,0.10
2023-03-28T17:35:50.785Z,0.10
2023-03-28T17:38:18.691Z,0.10
2023-03-28T17:40:49.556Z,0.10
2023-03-28T17:43:16.646Z,0.10
2023-03-28T17:45:44.257Z,0.10
2023-03-28T17:48:12.610Z,0.10
2023-03-28T17:50:39.453Z,0.10
2023-03-28T17:53:07.729Z,0.10
2023-03-28T17:55:34.733Z,0.00
2023-03-28T17:58:02.161Z,0.00
2023-03-28T18:00:31.304Z,0.00
2023-03-28T18:02:58.326Z,0.00
2023-03-28T18:05:25.382Z,0.00
2023-03-28T18:07:52.193Z,0.00
2023-03-28T18:10:19.011Z,-0.10
2023-03-28T18:12:45.878Z,-0.10
2023-03-28T18:15:13.177Z,-0.10
2023-03-28T18:17:40.263Z,-0.10
2023-03-28T18:20:08.765Z,-0.20
2023-03-28T18:22:36.893Z,-0.20
2023-03-28T18:25:05.077Z,-0.20
2023-03-28T18:27:32.429Z,-0.20
2023-03-28T18:30:01.330Z,-0.20
2023-03-28T18:32:28.182Z,-0.20
2023-03-28T18:34:55.186Z,-0.20
2023-03-28T18:37:22.096Z,-0.20
2023-03-28T18:39:49.003Z,-0.30
2023-03-28T18:42:18.486Z,-0.30
2023-03-28T18:44:45.181Z,-0.30
2023-03-28T18:47:12.826Z,-0.30
2023-03-28T18:49:40.978Z,-0.30
2023-03-28T18:52:10.596Z,-0.30
2023-03-28T18:54:39.100Z,-0.30
2023-03-28T18:57:07.140Z,-0.30
2023-03-28T18:59:34.189Z,-0.30
2023-03-28T19:02:01.351Z,-0.30
2023-03-28T19:04:28.444Z,-0.30
2023-03-28T19:06:55.289Z,-0.30
2023-03-28T19:09:22.282Z,-0.30
2023-03-28T19:11:53.037Z,-0.40
2023-03-28T19:14:19.877Z,-0.40
2023-03-28T19:16:47.049Z,-0.30
2023-03-28T19:19:14.117Z,-0.40
2023-03-28T19:21:40.797Z,-0.40
2023-03-28T19:24:07.922Z,-0.40
2023-03-28T19:26:34.889Z,-0.40
2023-03-28T19:29:01.643Z,-0.30
2023-03-28T19:31:28.317Z,-0.30
2023-03-28T19:33:55.173Z,-0.40
2023-03-28T19:36:22.135Z,-0.30
2023-03-28T19:38:48.925Z,-0.30
2023-03-28T19:41:24.421Z,-0.30
2023-03-28T19:43:52.420Z,-0.30
2023-03-28T19:46:23.847Z,-0.20
2023-03-28T19:48:52.913Z,-0.20
2023-03-28T19:51:19.655Z,-0.20
2023-03-28T19:53:46.506Z,-0.20
2023-03-28T19:56:14.403Z,-0.20
2023-03-28T19:58:41.809Z,-0.20
2023-03-28T20:01:08.618Z,-0.20
2023-03-28T20:03:36.388Z,-0.20
2023-03-28T20:06:09.013Z,-0.10
2023-03-28T20:08:35.864Z,0.00
2023-03-28T20:11:03.787Z,-0.10
2023-03-28T20:13:31.077Z,-0.10
2023-03-28T20:16:02.181Z,-0.10
2023-03-28T20:18:29.031Z,0.00
2023-03-28T20:20:57.945Z,0.00
2023-03-28T20:23:26.320Z,0.00
2023-03-28T20:25:55.390Z,0.00
2023-03-28T20:28:24.757Z,-0.10
2023-03-28T20:30:55.184Z,0.00
2023-03-28T20:33:22.283Z,0.00
2023-03-28T20:36:00.448Z,0.00
2023-03-28T20:38:27.844Z,0.00
2023-03-28T20:40:54.634Z,-0.10
2023-03-28T20:43:21.474Z,0.00
2023-03-28T20:45:53.900Z,0.00
2023-03-28T20:48:36.012Z,0.00
2023-03-28T20:51:14.337Z,0.00
2023-03-28T20:53:43.787Z,0.00
2023-03-28T20:56:12.001Z,0.10
2023-03-28T20:58:39.569Z,0.10
2023-03-28T21:01:09.091Z,0.10
2023-03-28T21:03:51.158Z,0.10
2023-03-28T21:06:24.860Z,0.10
2023-03-28T21:08:54.595Z,0.10
2023-03-28T21:11:26.839Z,0.10
2023-03-28T21:13:54.800Z,0.10
2023-03-28T21:16:23.434Z,0.20
2023-03-28T21:18:50.605Z,0.10
2023-03-28T21:21:19.389Z,0.10
2023-03-28T21:23:46.859Z,0.10
2023-03-28T21:26:19.334Z,0.10
2023-03-28T21:28:46.816Z,0.10
2023-03-28T21:31:16.144Z,0.10
2023-03-28T21:33:43.109Z,0.10
2023-03-28T21:36:12.439Z,0.10
2023-03-28T21:38:39.996Z,0.10
2023-03-28T21:41:07.507Z,0.10
2023-03-28T21:43:35.271Z,0.10
2023-03-28T21:46:03.215Z,0.10
2023-03-28T21:48:31.158Z,0.10
2023-03-28T21:50:59.895Z,0.10
2023-03-28T21:53:28.832Z,0.10
2023-03-28T21:55:56.366Z,0.10
2023-03-28T21:58:24.354Z,0.10
2023-03-28T22:00:51.106Z,0.10
2023-03-28T22:03:18.481Z,0.10
2023-03-28T22:05:46.323Z,0.00
2023-03-28T22:08:17.014Z,0.00
2023-03-28T22:10:47.784Z,0.00
2023-03-28T22:13:15.095Z,0.00
2023-03-28T22:15:42.079Z,0.00
2023-03-28T22:18:09.472Z,0.00
2023-03-28T22:20:38.087Z,0.00
2023-03-28T22:23:06.138Z,-0.10
2023-03-28T22:25:38.223Z,-0.10
2023-03-28T22:28:10.236Z,-0.20
2023-03-28T22:30:39.139Z,-0.10
2023-03-28T22:33:07.036Z,-0.20
2023-03-28T22:35:34.066Z,-0.20
2023-03-28T22:38:01.881Z,-0.20
2023-03-28T22:40:29.999Z,-0.10
2023-03-28T22:42:56.924Z,-0.20
2023-03-28T22:45:26.518Z,-0.20
2023-03-28T22:47:53.679Z,-0.20
2023-03-28T22:50:22.116Z,-0.30
2023-03-28T22:52:53.008Z,-0.30
2023-03-28T22:55:22.447Z,-0.30
2023-03-28T22:57:53.108Z,-0.30
2023-03-28T23:00:23.661Z,-0.30
2023-03-28T23:02:52.142Z,-0.40
2023-03-28T23:05:20.253Z,-0.40
2023-03-28T23:07:47.572Z,-0.40
2023-03-28T23:10:19.094Z,-0.40
2023-03-28T23:12:46.065Z,-0.50
2023-03-28T23:15:13.513Z,-0.50
2023-03-28T23:17:40.505Z,-0.50
2023-03-28T23:20:12.749Z,-0.50
2023-03-28T23:22:42.790Z,-0.50
2023-03-28T23:25:12.381Z,-0.60
2023-03-28T23:27:40.668Z,-0.60
2023-03-28T23:30:11.500Z,-0.60
2023-03-28T23:32:38.239Z,-0.60
2023-03-28T23:35:06.012Z,-0.60
2023-03-28T23:37:38.315Z,-0.70
2023-03-28T23:40:10.705Z,-0.60
2023-03-28T23:42:39.028Z,-0.70
2023-03-28T23:45:06.880Z,-0.70
2023-03-28T23:47:33.966Z,-0.70
2023-03-28T23:50:02.098Z,-0.70
2023-03-28T23:52:28.831Z,-0.80
2023-03-28T23:54:55.953Z,-0.80
2023-03-28T23:57:25.258Z,-0.80
2023-03-28T23:59:52.365Z,-0.90
